Latest Coastal Weather Observations for Lake Macquarie - Cooranbong

IDN60701

Issued at 8:51 pm EST Friday 18 August 2017 (issued every 10 minutes, with the page automatically refreshed every 10 minutes)

About coastal observations | Map of coastal stations | Coastal observations for NSW | Marine services | Other Formats
Station Details ID: 061412 Name: LAKE MACQUARIE AWS Lat: -33.09 Lon: 151.46 Height: 6.0 m
Data from the previous 72 hours. | See also: Recent months at Lake Macquarie - Cooranbong
Date/Time
EST
Temp
°C
Wind Pressure Rain since
9am
mm
Weather Cloud Vis
km
Sea
Height
m
Swell
Dir  Spd
kts
Gust
kts
hPa Trend Height
m
Period
s
Dir
18/08:30pm 12.4 W 11 21 1013.1 - 0.0 - - - - - - -
18/08:00pm 12.1 W 9 18 1012.8 - 0.0 - - - - - - -
18/07:30pm 12.1 W 9 17 1012.4 - 0.0 - - - - - - -
18/07:00pm 12.3 W 11 19 1012.2 - 0.0 - - - - - - -
18/06:30pm 12.8 W 11 23 1011.6 - 0.0 - - - - - - -
18/06:00pm 13.6 W 10 20 1011.5 - 0.0 - - - - - - -
18/05:30pm 14.1 W 9 18 1011.2 - 0.0 - - - - - - -
18/05:07pm 14.7 W 15 28 1010.5 - 0.0 - - - - - - -
18/05:00pm 14.9 W 12 19 1010.4 - 0.0 - - - - - - -
18/04:30pm 15.5 WNW 12 20 1009.9 - 0.0 - - - - - - -
18/04:00pm 16.2 WNW 13 26 1009.4 - 0.0 - - - - - - -
18/03:38pm 16.2 W 15 25 1009.2 - 0.0 - - - - - - -
18/03:30pm 16.6 W 12 25 1009.1 - 0.0 - - - - - - -
18/03:00pm 16.7 W 15 33 1008.8 - 0.0 - - - - - - -
18/02:32pm 16.7 W 15 25 1008.7 - 0.0 - - - - - - -
18/02:30pm 16.8 W 14 25 1008.6 - 0.0 - - - - - - -
18/02:00pm 17.0 W 12 21 1008.4 - 0.0 - - - - - - -
18/01:38pm 16.8 W 15 29 1008.5 - 0.0 - - - - - - -
18/01:36pm 16.9 W 14 29 1008.5 - 0.0 - - - - - - -
18/01:30pm 17.1 WNW 12 22 1008.3 - 0.0 - - - - - - -
18/01:07pm 17.0 WNW 15 27 1008.4 - 0.0 - - - - - - -
18/01:00pm 17.0 W 13 25 1008.5 - 0.0 - - - - - - -
18/12:30pm 16.3 W 17 31 1009.0 - 0.0 - - - - - - -
18/12:00pm 16.6 W 15 26 1008.9 - 0.0 - - - - - - -
18/11:31am 16.5 WNW 15 30 1009.3 - 0.0 - - - - - - -
18/11:30am 16.6 WNW 14 30 1009.3 - 0.0 - - - - - - -
18/11:14am 16.2 W 15 28 1009.5 - 0.0 - - - - - - -
18/11:00am 16.0 W 12 25 1009.7 - 0.0 - - - - - - -
18/10:30am 15.9 W 12 24 1010.0 - 0.0 - - - - - - -
18/10:00am 15.2 W 14 28 1010.3 - 0.0 - - - - - - -
18/09:30am 15.1 W 11 28 1010.2 - 0.0 - - - - - - -
18/09:10am 14.6 W 15 26 1010.5 - 0.0 - - - - - - -
18/09:00am 14.8 W 11 24 1010.6 - 0.0 - - - - - - -
18/08:30am 14.4 W 10 16 1010.6 - 0.0 - - - - - - -
18/08:00am 14.0 WNW 7 14 1010.3 - 0.0 - - - - - - -
18/07:30am 13.8 W 8 15 1010.4 - 0.0 - - - - - - -
18/07:00am 14.0 W 10 21 1010.3 - 0.0 - - - - - - -
18/06:30am 14.3 W 9 15 1010.0 - 0.0 - - - - - - -
18/06:00am 14.5 WSW 9 17 1009.7 - 0.0 - - - - - - -
18/05:30am 15.2 W 8 14 1009.2 - 0.0 - - - - - - -
18/05:00am 10.3 WNW 3 8 1008.5 - 0.0 - - - - - - -
18/04:30am 14.2 WNW 4 7 1008.1 - 0.0 - - - - - - -
18/04:00am 10.1 WNW 2 6 1008.0 - 0.0 - - - - - - -
18/03:30am 12.5 NW 2 5 1007.7 - 0.0 - - - - - - -
18/03:00am 8.5 NNW 2 4 1007.8 - 0.0 - - - - - - -
18/02:30am 7.0 NNW 2 4 1008.2 - 0.0 - - - - - - -
18/02:00am 5.7 W 1 2 1008.5 - 0.0 - - - - - - -
18/01:30am 5.4 NW 1 3 1008.7 - 0.0 - - - - - - -
18/01:00am 5.7 NW 1 4 1008.9 - 0.0 - - - - - - -
18/12:30am 5.8 N 1 2 1009.1 - 0.0 - - - - - - -
18/12:00am 6.0 N 1 3 1009.1 - 0.0 - - - - - - -
 
Date/Time
EST
Temp
°C
Wind Pressure Rain since
9am
mm
Weather Cloud Vis
km
Sea
Height
m
Swell
Dir  Spd
kts
Gust
kts
hPa Trend Height
m
Period
s
Dir
17/11:30pm 6.5 CALM 0 2 1009.1 - 0.0 - - - - - - -
17/11:00pm 7.0 CALM 0 0 1009.0 - 0.0 - - - - - - -
17/10:30pm 7.3 N 1 2 1009.1 - 0.0 - - - - - - -
17/10:00pm 8.0 CALM 0 0 1009.1 - 0.0 - - - - - - -
17/09:30pm 8.7 CALM 0 0 1009.2 - 0.0 - - - - - - -
17/09:00pm 9.4 CALM 0 0 1009.2 - 0.0 - - - - - - -
17/08:30pm 10.0 CALM 0 0 1009.2 - 0.0 - - - - - - -
17/08:00pm 11.0 CALM 0 3 1009.1 - 0.0 - - - - - - -
17/07:30pm 12.0 CALM 0 2 1008.8 - 0.0 - - - - - - -
17/07:00pm 12.7 CALM 0 2 1008.3 - 0.0 - - - - - - -
17/06:30pm 13.6 N 3 4 1007.9 - 0.0 - - - - - - -
17/06:00pm 17.2 NNW 2 3 1007.5 - 0.0 - - - - - - -
17/05:30pm 19.9 WNW 5 11 1007.0 - 0.0 - - - - - - -
17/05:00pm 21.2 WNW 5 10 1006.4 - 0.0 - - - - - - -
17/04:30pm 22.1 W 6 16 1006.2 - 0.0 - - - - - - -
17/04:00pm 22.7 WNW 8 15 1006.0 - 0.0 - - - - - - -
17/03:30pm 23.3 WNW 6 12 1005.8 - 0.0 - - - - - - -
17/03:00pm 23.0 NW 7 14 1005.8 - 0.0 - - - - - - -
17/02:30pm 23.1 WNW 8 18 1005.9 - 0.0 - - - - - - -
17/02:00pm 22.9 WNW 6 12 1006.0 - 0.0 - - - - - - -
17/01:30pm 22.1 W 9 19 1006.4 - 0.0 - - - - - - -
17/01:00pm 22.1 WNW 6 10 1006.9 - 0.0 - - - - - - -
17/12:30pm 21.3 NW 8 17 1007.3 - 0.0 - - - - - - -
17/12:00pm 20.8 NW 6 9 1007.9 - 0.0 - - - - - - -
17/11:30am 20.1 WNW 4 8 1008.6 - 0.0 - - - - - - -
17/11:00am 19.6 WNW 5 13 1009.1 - 0.0 - - - - - - -
17/10:30am 19.0 WNW 6 12 1009.6 - 0.0 - - - - - - -
17/10:00am 18.5 NW 4 8 1009.9 - 0.0 - - - - - - -
17/09:30am 17.4 NW 5 7 1010.1 - 0.0 - - - - - - -
17/09:00am 16.2 NNW 2 3 1010.2 - 0.0 - - - - - - -
17/08:30am 12.5 N 2 3 1010.4 - 0.0 - - - - - - -
17/08:00am 7.9 CALM 0 0 1010.3 - 0.0 - - - - - - -
17/07:30am 4.4 NW 1 2 1010.1 - 0.0 - - - - - - -
17/07:00am 4.1 WNW 1 3 1009.9 - 0.0 - - - - - - -
17/06:30am 4.0 CALM 0 0 1009.5 - 0.0 - - - - - - -
17/06:00am 4.4 NNW 1 3 1009.2 - 0.0 - - - - - - -
17/05:30am 4.1 CALM 0 1 1008.8 - 0.0 - - - - - - -
17/05:00am 4.5 CALM 0 0 1008.7 - 0.0 - - - - - - -
17/04:30am 4.9 CALM 0 0 1008.5 - 0.0 - - - - - - -
17/04:00am 5.2 CALM 0 0 1008.3 - 0.0 - - - - - - -
17/03:30am 5.9 CALM 0 0 1008.2 - 0.0 - - - - - - -
17/03:00am 5.9 CALM 0 0 1008.2 - 0.0 - - - - - - -
17/02:30am 6.8 CALM 0 0 1008.6 - 0.0 - - - - - - -
17/02:00am 7.3 CALM 0 3 1009.0 - 0.0 - - - - - - -
17/01:30am 7.0 CALM 0 0 1009.1 - 0.0 - - - - - - -
17/01:00am 7.5 CALM 0 0 1009.2 - 0.0 - - - - - - -
17/12:30am 7.5 CALM 0 2 1009.4 - 0.0 - - - - - - -
17/12:00am 7.5 CALM 0 1 1009.4 - 0.0 - - - - - - -
 
Date/Time
EST
Temp
°C
Wind Pressure Rain since
9am
mm
Weather Cloud Vis
km
Sea
Height
m
Swell
Dir  Spd
kts
Gust
kts
hPa Trend Height
m
Period
s
Dir
16/11:30pm 7.7 N 2 7 1009.6 - 0.0 - - - - - - -
16/11:00pm 8.2 CALM 0 1 1009.7 - 0.0 - - - - - - -
16/10:30pm 8.4 CALM 0 1 1009.8 - 0.0 - - - - - - -
16/10:00pm 8.0 CALM 0 0 1009.9 - 0.0 - - - - - - -
16/09:30pm 8.2 CALM 0 0 1009.7 - 0.0 - - - - - - -
16/09:00pm 9.2 CALM 0 0 1009.6 - 0.0 - - - - - - -
16/08:30pm 9.8 CALM 0 0 1009.4 - 0.0 - - - - - - -
16/08:00pm 10.1 CALM 0 0 1009.1 - 0.0 - - - - - - -
16/07:30pm 11.4 NW 1 2 1008.7 - 0.0 - - - - - - -
16/07:00pm 13.0 NW 2 3 1008.4 - 0.0 - - - - - - -
16/06:30pm 12.5 CALM 0 0 1008.0 - 0.0 - - - - - - -
16/06:00pm 14.7 NW 1 1 1007.7 - 0.0 - - - - - - -
16/05:30pm 17.8 NW 4 12 1007.0 - 0.0 - - - - - - -
16/05:00pm 20.0 W 6 12 1006.4 - 0.0 - - - - - - -
16/04:30pm 20.6 WNW 8 17 1006.0 - 0.0 - - - - - - -
16/04:00pm 20.9 WNW 10 20 1005.5 - 0.0 - - - - - - -
16/03:30pm 21.4 WNW 10 22 1004.9 - 0.0 - - - - - - -
16/03:00pm 21.6 W 10 18 1004.6 - 0.0 - - - - - - -
16/02:30pm 21.7 W 13 21 1004.3 - 0.0 - - - - - - -
16/02:00pm 22.6 WNW 8 13 1003.9 - 0.0 - - - - - - -
16/01:30pm 22.2 W 11 20 1003.6 - 0.0 - - - - - - -
16/01:12pm 22.6 W 15 26 1003.3 - 0.0 - - - - - - -
16/01:00pm 23.2 WNW 12 23 1003.3 - 0.0 - - - - - - -
16/12:30pm 23.4 W 11 19 1003.1 - 0.0 - - - - - - -
16/12:00pm 23.1 W 9 15 1003.5 - 0.0 - - - - - - -
16/11:30am 22.7 WNW 12 19 1003.3 - 0.0 - - - - - - -
16/11:00am 22.8 WNW 8 21 1003.6 - 0.0 - - - - - - -
16/10:30am 23.6 NW 7 15 1003.4 - 0.0 - - - - - - -
16/10:00am 23.0 WNW 8 18 1003.2 - 0.0 - - - - - - -
16/09:30am 22.5 W 9 17 1002.8 - 0.0 - - - - - - -
16/09:00am 24.5 W 7 14 1002.4 - 0.0 - - - - - - -
16/08:30am 23.8 NW 5 11 1001.6 - - - - - - - - -
16/08:00am 20.7 NNW 2 8 1000.7 - - - - - - - - -
16/07:30am 18.3 N 3 7 999.9 - - - - - - - - -
16/07:00am 13.0 NE 1 5 999.4 - - - - - - - - -
16/06:30am 14.1 E 2 3 999.6 - - - - - - - - -
16/06:00am 13.6 ENE 1 2 999.3 - - - - - - - - -
16/05:30am 13.1 NE 2 5 999.1 - - - - - - - - -
16/05:00am 10.9 SSE 1 3 999.4 - - - - - - - - -
16/04:30am 10.0 NNE 1 7 999.6 - - - - - - - - -
16/04:00am 10.0 CALM 0 0 999.8 - - - - - - - - -
16/03:30am 10.4 S 1 3 1000.2 - - - - - - - - -
16/03:00am 9.6 N 1 1 1000.8 - 0.0 - - - - - - -
16/02:30am 9.0 CALM 0 0 1001.4 - - - - - - - - -
16/02:00am 9.0 CALM 0 0 1002.3 - - - - - - - - -
16/01:30am 9.3 WNW 1 2 1002.8 - - - - - - - - -
16/01:00am 9.8 CALM 0 0 1003.0 - - - - - - - - -
16/12:30am 10.6 NNE 2 3 1003.8 - - - - - - - - -
16/12:00am 10.7 CALM 0 0 1004.5 - - - - - - - - -
 
Date/Time
EST
Temp
°C
Wind Pressure Rain since
9am
mm
Weather Cloud Vis
km
Sea
Height
m
Swell
Dir  Spd
kts
Gust
kts
hPa Trend Height
m
Period
s
Dir
15/11:30pm 11.6 WNW 1 3 1005.0 - - - - - - - - -
15/11:00pm 12.5 WNW 2 5 1005.5 - - - - - - - - -
15/10:30pm 12.2 NE 3 7 1006.1 - - - - - - - - -
15/10:00pm 12.3 CALM 0 0 1006.7 - - - - - - - - -
15/09:30pm 12.7 CALM 0 0 1007.4 - - - - - - - - -
15/09:00pm 13.1 CALM 0 0 1007.5 - 0.0 - - - - - - -

Other Formats:

Comma delimited format used in spreadsheet applications
http://www.bom.gov.au/fwo/IDN60701/IDN60701.95767.axf

JavaScript Object Notation format (JSON) in row-major order
http://www.bom.gov.au/fwo/IDN60701/IDN60701.95767.json